createdAt,value
2024-01-29T00:00:12.436Z,89725.00
2024-01-29T00:01:12.660Z,89732.00
2024-01-29T00:02:12.571Z,89733.00
2024-01-29T00:03:12.648Z,89737.00
2024-01-29T00:04:12.768Z,89738.00
2024-01-29T00:05:12.716Z,89726.00
2024-01-29T00:06:12.834Z,89737.00
2024-01-29T00:07:12.915Z,89730.00
2024-01-29T00:08:12.905Z,89724.00
2024-01-29T00:09:12.954Z,89731.00
2024-01-29T00:10:12.966Z,89734.00
2024-01-29T00:11:13.041Z,89731.00
2024-01-29T00:12:13.019Z,89727.00
2024-01-29T00:13:12.963Z,89724.00
2024-01-29T00:14:12.983Z,89728.00
2024-01-29T00:15:12.989Z,89730.00
2024-01-29T00:16:12.970Z,89726.00
2024-01-29T00:17:12.975Z,89723.00
2024-01-29T00:18:12.972Z,89724.00
2024-01-29T00:19:13.129Z,89727.00
2024-01-29T00:20:13.046Z,89728.00
2024-01-29T00:21:12.972Z,89722.00
2024-01-29T00:22:12.973Z,89722.00
2024-01-29T00:23:12.981Z,89723.00
2024-01-29T00:24:12.982Z,89722.00
2024-01-29T00:25:13.071Z,89718.00
2024-01-29T00:26:12.981Z,89718.00
2024-01-29T00:27:12.979Z,89717.00
2024-01-29T00:28:13.022Z,89718.00
2024-01-29T00:29:13.062Z,89720.00
2024-01-29T00:30:13.159Z,89720.00
2024-01-29T00:31:13.192Z,89720.00
2024-01-29T00:32:13.265Z,89722.00
2024-01-29T00:33:13.413Z,89721.00
2024-01-29T00:34:13.731Z,89722.00
2024-01-29T00:35:13.450Z,89721.00
2024-01-29T00:36:13.511Z,89723.00
2024-01-29T00:37:13.580Z,89718.00
2024-01-29T00:38:13.580Z,89728.00
2024-01-29T00:39:13.580Z,89716.00
2024-01-29T00:40:13.653Z,89724.00
2024-01-29T00:41:13.582Z,89723.00
2024-01-29T00:42:13.599Z,89721.00
2024-01-29T00:43:13.628Z,89723.00
2024-01-29T00:44:13.602Z,89728.00
2024-01-29T00:45:13.603Z,89726.00
2024-01-29T00:46:13.607Z,89725.00
2024-01-29T00:47:13.610Z,89718.00
2024-01-29T00:48:13.665Z,89731.00
2024-01-29T00:49:13.710Z,89731.00
2024-01-29T00:50:13.634Z,89727.00
2024-01-29T00:51:13.636Z,89723.00
2024-01-29T00:52:13.640Z,89723.00
2024-01-29T00:53:13.637Z,89724.00
2024-01-29T00:54:13.666Z,89730.00
2024-01-29T00:55:13.766Z,89726.00
2024-01-29T00:56:13.808Z,89728.00
2024-01-29T00:57:13.883Z,89719.00
2024-01-29T00:58:13.944Z,89719.00
2024-01-29T00:59:14.002Z,89732.00
2024-01-29T01:00:14.098Z,89730.00
2024-01-29T01:01:14.212Z,89727.00
2024-01-29T01:02:14.275Z,89732.00
2024-01-29T01:03:14.269Z,89735.00
2024-01-29T01:04:14.414Z,89729.00
2024-01-29T01:05:14.520Z,89728.00
2024-01-29T01:06:14.576Z,89732.00
2024-01-29T01:07:14.577Z,89732.00
2024-01-29T01:08:14.568Z,89730.00
2024-01-29T01:09:14.554Z,89724.00
2024-01-29T01:10:14.563Z,89725.00
2024-01-29T01:11:14.568Z,89728.00
2024-01-29T01:12:14.588Z,89735.00
2024-01-29T01:13:14.569Z,89739.00
2024-01-29T01:14:14.567Z,89738.00
2024-01-29T01:15:14.586Z,89737.00
2024-01-29T01:16:14.636Z,89737.00
2024-01-29T01:17:14.673Z,89738.00
2024-01-29T01:18:14.837Z,89744.00
2024-01-29T01:19:14.889Z,89749.00
2024-01-29T01:20:14.925Z,89742.00
2024-01-29T01:21:14.967Z,89747.00
2024-01-29T01:22:15.025Z,89741.00
2024-01-29T01:23:15.091Z,89741.00
2024-01-29T01:24:15.150Z,89738.00
2024-01-29T01:25:15.242Z,89735.00
2024-01-29T01:26:15.299Z,89736.00
2024-01-29T01:27:15.368Z,89736.00
2024-01-29T01:28:15.430Z,89733.00
2024-01-29T01:29:15.478Z,89741.00
2024-01-29T01:30:15.572Z,89742.00
2024-01-29T01:31:15.634Z,89740.00
2024-01-29T01:32:15.682Z,89743.00
2024-01-29T01:33:15.766Z,89744.00
2024-01-29T01:34:15.863Z,89738.00
2024-01-29T01:35:15.769Z,89731.00
2024-01-29T01:36:15.774Z,89738.00
2024-01-29T01:37:15.769Z,89744.00
2024-01-29T01:38:15.776Z,89739.00
2024-01-29T01:39:15.806Z,89736.00
2024-01-29T01:40:15.851Z,89739.00
2024-01-29T01:41:15.799Z,89741.00
2024-01-29T01:42:15.839Z,89737.00
2024-01-29T01:43:15.913Z,89741.00
2024-01-29T01:44:15.976Z,89738.00
2024-01-29T01:45:16.058Z,89735.00
2024-01-29T01:46:16.120Z,89741.00
2024-01-29T01:47:16.105Z,89735.00
2024-01-29T01:48:16.133Z,89730.00
2024-01-29T01:49:16.185Z,89734.00
2024-01-29T01:50:16.156Z,89743.00
2024-01-29T01:51:16.170Z,89730.00
2024-01-29T01:52:16.144Z,89731.00
2024-01-29T01:53:16.170Z,89735.00
2024-01-29T01:54:16.172Z,89733.00
2024-01-29T01:55:16.203Z,89732.00
2024-01-29T01:56:16.174Z,89717.00
2024-01-29T01:57:16.184Z,89729.00
2024-01-29T01:58:16.211Z,89738.00
2024-01-29T01:59:16.191Z,89735.00
2024-01-29T02:00:16.237Z,89735.00
2024-01-29T02:01:16.330Z,89729.00
2024-01-29T02:02:16.284Z,89728.00
2024-01-29T02:03:16.360Z,89725.00
2024-01-29T02:04:16.602Z,89721.00
2024-01-29T02:05:16.584Z,89723.00
2024-01-29T02:06:16.569Z,89730.00
2024-01-29T02:07:16.698Z,89728.00
2024-01-29T02:08:16.710Z,89718.00
2024-01-29T02:09:16.789Z,89719.00
2024-01-29T02:10:16.858Z,89723.00
2024-01-29T02:11:16.911Z,89725.00
2024-01-29T02:12:16.968Z,89723.00
2024-01-29T02:13:17.029Z,89721.00
2024-01-29T02:14:17.080Z,89715.00
2024-01-29T02:15:17.151Z,89714.00
2024-01-29T02:16:17.224Z,89717.00
2024-01-29T02:17:17.236Z,89718.00
2024-01-29T02:18:17.256Z,89719.00
2024-01-29T02:19:17.520Z,89719.00
2024-01-29T02:20:17.232Z,89718.00
2024-01-29T02:21:17.269Z,89717.00
2024-01-29T02:22:17.272Z,89722.00
2024-01-29T02:23:17.256Z,89717.00
2024-01-29T02:24:17.291Z,89726.00
2024-01-29T02:25:17.323Z,89718.00
2024-01-29T02:26:17.385Z,89727.00
2024-01-29T02:27:17.479Z,89717.00
2024-01-29T02:28:17.505Z,89717.00
2024-01-29T02:29:17.578Z,89719.00
2024-01-29T02:30:17.661Z,89715.00
2024-01-29T02:31:17.841Z,89719.00
2024-01-29T02:32:17.798Z,89718.00
2024-01-29T02:33:17.951Z,89716.00
2024-01-29T02:34:18.126Z,89717.00
2024-01-29T02:35:17.974Z,89717.00
2024-01-29T02:36:17.961Z,89715.00
2024-01-29T02:37:17.956Z,89719.00
2024-01-29T02:38:17.996Z,89714.00
2024-01-29T02:39:17.996Z,89710.00
2024-01-29T02:40:18.024Z,89709.00
2024-01-29T02:41:17.984Z,89703.00
2024-01-29T02:42:17.993Z,89706.00
2024-01-29T02:43:18.029Z,89711.00
2024-01-29T02:44:18.100Z,89707.00
2024-01-29T02:45:18.169Z,89702.00
2024-01-29T02:46:18.237Z,89703.00
2024-01-29T02:47:18.310Z,89710.00
2024-01-29T02:48:18.479Z,89708.00
2024-01-29T02:49:18.616Z,89708.00
2024-01-29T02:50:18.548Z,89704.00
2024-01-29T02:51:18.570Z,89705.00
2024-01-29T02:52:18.633Z,89707.00
2024-01-29T02:53:18.672Z,89704.00
2024-01-29T02:54:18.736Z,89695.00
2024-01-29T02:55:18.754Z,89698.00
2024-01-29T02:56:18.748Z,89698.00
2024-01-29T02:57:18.746Z,89703.00
2024-01-29T02:58:18.783Z,89691.00
2024-01-29T02:59:18.762Z,89701.00
2024-01-29T03:00:18.766Z,89700.00
2024-01-29T03:01:18.838Z,89696.00
2024-01-29T03:02:18.789Z,89695.00
2024-01-29T03:03:18.924Z,89697.00
2024-01-29T03:04:18.984Z,89691.00
2024-01-29T03:05:19.061Z,89696.00
2024-01-29T03:06:19.099Z,89690.00
2024-01-29T03:07:19.079Z,89686.00
2024-01-29T03:08:19.090Z,89688.00
2024-01-29T03:09:19.092Z,89691.00
2024-01-29T03:10:19.109Z,89695.00
2024-01-29T03:11:19.097Z,89694.00
2024-01-29T03:12:19.123Z,89688.00
2024-01-29T03:13:19.116Z,89687.00
2024-01-29T03:14:19.131Z,89685.00
2024-01-29T03:15:19.166Z,89684.00
2024-01-29T03:16:19.218Z,89686.00
2024-01-29T03:17:19.303Z,89686.00
2024-01-29T03:18:19.472Z,89686.00
2024-01-29T03:19:19.520Z,89689.00
2024-01-29T03:20:19.516Z,89681.00
2024-01-29T03:21:19.582Z,89681.00
2024-01-29T03:22:19.647Z,89679.00
2024-01-29T03:23:19.722Z,89682.00
2024-01-29T03:24:19.723Z,89681.00
2024-01-29T03:25:19.728Z,89679.00
2024-01-29T03:26:19.735Z,89681.00
2024-01-29T03:27:19.733Z,89678.00
2024-01-29T03:28:19.748Z,89679.00
2024-01-29T03:29:19.772Z,89678.00
2024-01-29T03:30:19.748Z,89683.00
2024-01-29T03:31:19.739Z,89681.00
2024-01-29T03:32:19.836Z,89683.00
2024-01-29T03:33:20.028Z,89680.00
2024-01-29T03:34:20.064Z,89677.00
2024-01-29T03:35:20.017Z,89670.00
2024-01-29T03:36:20.086Z,89678.00
2024-01-29T03:37:20.173Z,89682.00
2024-01-29T03:38:20.266Z,89672.00
2024-01-29T03:39:20.321Z,89677.00
2024-01-29T03:40:20.367Z,89674.00
2024-01-29T03:41:20.439Z,89670.00
2024-01-29T03:42:20.521Z,89672.00
2024-01-29T03:43:20.578Z,89674.00
2024-01-29T03:44:20.594Z,89669.00
2024-01-29T03:45:20.604Z,89669.00
2024-01-29T03:46:20.621Z,89670.00
2024-01-29T03:47:20.619Z,89674.00
2024-01-29T03:48:20.676Z,89671.00
2024-01-29T03:49:20.797Z,89673.00
2024-01-29T03:50:20.681Z,89672.00
2024-01-29T03:51:20.640Z,89669.00
2024-01-29T03:52:20.670Z,89666.00
2024-01-29T03:53:20.730Z,89669.00
2024-01-29T03:54:20.805Z,89670.00
2024-01-29T03:55:20.922Z,89668.00
2024-01-29T03:56:20.825Z,89670.00
2024-01-29T03:57:20.838Z,89674.00
2024-01-29T03:58:20.836Z,89674.00
2024-01-29T03:59:20.851Z,89673.00
2024-01-29T04:00:20.846Z,89671.00
2024-01-29T04:01:20.901Z,89676.00
2024-01-29T04:02:20.864Z,89674.00
2024-01-29T04:03:20.931Z,89676.00
2024-01-29T04:04:21.183Z,89679.00
2024-01-29T04:05:21.143Z,89682.00
2024-01-29T04:06:21.127Z,89684.00
2024-01-29T04:07:21.191Z,89677.00
2024-01-29T04:08:21.194Z,89678.00
2024-01-29T04:09:21.333Z,89680.00
2024-01-29T04:10:21.347Z,89679.00
2024-01-29T04:11:21.436Z,89678.00
2024-01-29T04:12:28.669Z,89680.00
2024-01-29T04:13:28.646Z,89675.00
2024-01-29T04:14:28.692Z,89678.00
2024-01-29T04:15:28.736Z,89673.00
2024-01-29T04:16:28.687Z,89678.00
2024-01-29T04:17:28.715Z,89678.00
2024-01-29T04:18:28.867Z,89680.00
2024-01-29T04:19:28.810Z,89677.00
2024-01-29T04:20:28.779Z,89677.00
2024-01-29T04:21:28.788Z,89675.00
2024-01-29T04:22:28.784Z,89673.00
2024-01-29T04:23:28.836Z,89674.00
2024-01-29T04:24:28.909Z,89671.00
2024-01-29T04:25:28.991Z,89668.00
2024-01-29T04:26:29.057Z,89673.00
2024-01-29T04:27:29.146Z,89668.00
2024-01-29T04:28:29.216Z,89673.00
2024-01-29T04:29:29.305Z,89676.00
2024-01-29T04:30:29.419Z,89675.00
2024-01-29T04:31:36.627Z,89671.00
2024-01-29T04:32:36.646Z,89672.00
2024-01-29T04:33:36.678Z,89672.00
2024-01-29T04:34:36.737Z,89675.00
2024-01-29T04:35:36.753Z,89673.00
2024-01-29T04:36:36.796Z,89671.00
2024-01-29T04:37:36.837Z,89674.00
2024-01-29T04:38:36.855Z,89676.00
2024-01-29T04:39:36.955Z,89674.00
2024-01-29T04:40:36.958Z,89673.00
2024-01-29T04:41:37.000Z,89673.00
2024-01-29T04:42:37.071Z,89677.00
2024-01-29T04:43:37.065Z,89677.00
2024-01-29T04:44:37.125Z,89675.00
2024-01-29T04:45:37.241Z,89673.00
2024-01-29T04:46:37.197Z,89674.00
2024-01-29T04:47:37.281Z,89672.00
2024-01-29T04:48:37.373Z,89671.00
2024-01-29T04:49:37.347Z,89664.00
2024-01-29T04:50:37.353Z,89666.00
2024-01-29T04:51:37.476Z,89667.00
2024-01-29T04:52:37.444Z,89665.00
2024-01-29T04:53:37.482Z,89668.00
2024-01-29T04:54:37.564Z,89668.00
2024-01-29T04:55:37.560Z,89664.00
2024-01-29T04:56:37.586Z,89663.00
2024-01-29T04:57:37.650Z,89668.00
2024-01-29T04:58:37.685Z,89667.00
2024-01-29T04:59:37.729Z,89662.00
2024-01-29T05:00:37.833Z,89667.00
2024-01-29T05:01:37.928Z,89668.00
2024-01-29T05:02:37.870Z,89663.00
2024-01-29T05:03:37.886Z,89668.00
2024-01-29T05:04:38.011Z,89668.00
2024-01-29T05:05:37.965Z,89670.00
2024-01-29T05:06:38.031Z,89664.00
2024-01-29T05:07:38.048Z,89668.00
2024-01-29T05:08:38.104Z,89663.00
2024-01-29T05:09:38.246Z,89670.00
2024-01-29T05:10:40.020Z,89673.00
2024-01-29T05:11:38.375Z,89676.00
2024-01-29T05:12:38.492Z,89674.00
2024-01-29T05:13:38.566Z,89672.00
2024-01-29T05:14:38.653Z,89678.00
2024-01-29T05:15:38.719Z,89673.00
2024-01-29T05:16:38.707Z,89680.00
2024-01-29T05:17:38.762Z,89674.00
2024-01-29T05:18:38.850Z,89672.00
2024-01-29T05:19:38.859Z,89676.00
2024-01-29T05:20:38.847Z,89673.00
2024-01-29T05:21:38.883Z,89681.00
2024-01-29T05:22:38.904Z,89681.00
2024-01-29T05:23:38.960Z,89677.00
2024-01-29T05:24:39.013Z,89670.00
2024-01-29T05:25:39.062Z,89681.00
2024-01-29T05:26:39.067Z,89677.00
2024-01-29T05:27:39.211Z,89680.00
2024-01-29T05:28:39.131Z,89678.00
2024-01-29T05:29:39.174Z,89679.00
2024-01-29T05:30:39.221Z,89680.00
2024-01-29T05:31:39.241Z,89676.00
2024-01-29T05:32:39.429Z,89675.00
2024-01-29T05:33:39.484Z,89675.00
2024-01-29T05:34:39.582Z,89674.00
2024-01-29T05:35:39.566Z,89675.00
2024-01-29T05:36:39.662Z,89675.00
2024-01-29T05:37:39.747Z,89673.00
2024-01-29T05:38:39.797Z,89665.00
2024-01-29T05:39:39.980Z,89672.00
2024-01-29T05:40:40.007Z,89670.00
2024-01-29T05:41:40.077Z,89670.00
2024-01-29T05:42:40.240Z,89674.00
2024-01-29T05:43:40.260Z,89674.00
2024-01-29T05:44:40.358Z,89675.00
2024-01-29T05:45:40.526Z,89674.00
2024-01-29T05:46:40.529Z,89678.00
2024-01-29T05:47:40.684Z,89681.00
2024-01-29T05:48:40.848Z,89680.00
2024-01-29T05:49:40.769Z,89680.00
2024-01-29T05:50:40.797Z,89680.00
2024-01-29T05:51:40.822Z,89682.00
2024-01-29T05:52:40.854Z,89684.00
2024-01-29T05:53:40.880Z,89683.00
2024-01-29T05:54:40.959Z,89684.00
2024-01-29T05:55:40.946Z,89686.00
2024-01-29T05:56:40.978Z,89686.00
2024-01-29T05:57:41.031Z,89681.00
2024-01-29T05:58:41.036Z,89685.00
2024-01-29T05:59:41.102Z,89687.00
2024-01-29T06:00:41.183Z,89686.00
2024-01-29T06:01:41.343Z,89688.00
2024-01-29T06:02:41.300Z,89683.00
2024-01-29T06:03:41.379Z,89677.00
2024-01-29T06:04:41.366Z,89685.00
2024-01-29T06:05:41.415Z,89685.00
2024-01-29T06:06:41.553Z,89685.00
2024-01-29T06:07:41.545Z,89684.00
2024-01-29T06:08:41.518Z,89685.00
2024-01-29T06:09:41.530Z,89683.00
2024-01-29T06:10:41.539Z,89680.00
2024-01-29T06:11:41.588Z,89681.00
2024-01-29T06:12:41.654Z,89680.00
2024-01-29T06:13:41.738Z,89684.00
2024-01-29T06:14:41.689Z,89684.00
2024-01-29T06:15:41.833Z,89677.00
2024-01-29T06:16:41.845Z,89682.00
2024-01-29T06:17:42.060Z,89684.00
2024-01-29T06:18:42.136Z,89681.00
2024-01-29T06:19:53.967Z,89679.00
2024-01-29T06:20:43.191Z,89677.00
2024-01-29T06:21:42.231Z,89677.00
2024-01-29T06:22:42.227Z,89685.00
2024-01-29T06:23:42.270Z,89692.00
2024-01-29T06:24:42.299Z,89687.00
2024-01-29T06:25:42.326Z,89683.00
2024-01-29T06:26:42.356Z,89688.00
2024-01-29T06:27:42.671Z,89691.00
2024-01-29T06:28:42.416Z,89686.00
2024-01-29T06:29:42.539Z,89695.00
2024-01-29T06:30:42.667Z,89694.00
2024-01-29T06:31:42.672Z,89696.00
2024-01-29T06:32:42.774Z,89694.00
2024-01-29T06:33:42.866Z,89707.00
2024-01-29T06:34:43.115Z,89712.00
2024-01-29T06:35:42.933Z,89695.00
2024-01-29T06:36:42.977Z,89698.00
2024-01-29T06:37:42.933Z,89697.00
2024-01-29T06:38:42.972Z,89697.00
2024-01-29T06:39:43.021Z,89703.00
2024-01-29T06:40:43.091Z,89704.00
2024-01-29T06:41:43.060Z,89702.00
2024-01-29T06:42:43.151Z,89696.00
2024-01-29T06:43:43.193Z,89703.00
2024-01-29T06:44:43.307Z,89700.00
2024-01-29T06:45:43.337Z,89699.00
2024-01-29T06:46:43.566Z,89700.00
2024-01-29T06:47:43.504Z,89706.00
2024-01-29T06:48:43.558Z,89702.00
2024-01-29T06:49:43.552Z,89704.00
2024-01-29T06:50:43.565Z,89699.00
2024-01-29T06:51:43.590Z,89703.00
2024-01-29T06:52:43.618Z,89697.00
2024-01-29T06:53:43.674Z,89702.00
2024-01-29T06:54:43.786Z,89700.00
2024-01-29T06:55:43.807Z,89699.00
2024-01-29T06:56:43.732Z,89705.00
2024-01-29T06:57:43.779Z,89701.00
2024-01-29T06:58:43.919Z,89703.00
2024-01-29T06:59:43.831Z,89706.00
2024-01-29T07:00:44.024Z,89705.00
2024-01-29T07:01:44.073Z,89704.00
2024-01-29T07:02:43.991Z,89707.00
2024-01-29T07:03:44.104Z,89708.00
2024-01-29T07:04:44.195Z,89708.00
2024-01-29T07:05:44.164Z,89710.00
2024-01-29T07:06:44.189Z,89710.00
2024-01-29T07:07:44.247Z,89711.00
2024-01-29T07:08:44.321Z,89711.00
2024-01-29T07:09:45.268Z,89713.00
2024-01-29T07:10:44.413Z,89713.00
2024-01-29T07:11:44.562Z,89712.00
2024-01-29T07:12:44.656Z,89714.00
2024-01-29T07:13:44.603Z,89713.00
2024-01-29T07:14:44.653Z,89713.00
2024-01-29T07:15:44.778Z,89712.00
2024-01-29T07:16:44.782Z,89715.00
2024-01-29T07:17:44.893Z,89714.00
2024-01-29T07:18:44.956Z,89716.00
2024-01-29T07:19:45.066Z,89717.00
2024-01-29T07:20:45.055Z,89716.00
2024-01-29T07:21:45.123Z,89721.00
2024-01-29T07:22:45.193Z,89719.00
2024-01-29T07:23:45.229Z,89717.00
2024-01-29T07:24:45.250Z,89718.00
2024-01-29T07:25:45.304Z,89719.00
2024-01-29T07:26:45.381Z,89719.00
2024-01-29T07:27:45.477Z,89720.00
2024-01-29T07:28:45.560Z,89721.00
2024-01-29T07:29:45.659Z,89721.00
2024-01-29T07:30:45.732Z,89722.00
2024-01-29T07:31:45.733Z,89721.00
2024-01-29T07:32:45.875Z,89721.00
2024-01-29T07:33:46.078Z,89721.00
2024-01-29T07:34:48.502Z,89723.00
2024-01-29T07:35:46.002Z,89724.00
2024-01-29T07:36:46.037Z,89722.00
2024-01-29T07:37:46.075Z,89724.00
2024-01-29T07:38:46.105Z,89722.00
2024-01-29T07:39:46.203Z,89727.00
2024-01-29T07:40:46.181Z,89729.00
2024-01-29T07:41:46.245Z,89727.00
2024-01-29T07:42:46.297Z,89731.00
2024-01-29T07:43:46.325Z,89734.00
2024-01-29T07:44:46.374Z,89733.00
2024-01-29T07:45:46.461Z,89729.00
2024-01-29T07:46:46.642Z,89731.00
2024-01-29T07:47:46.955Z,89727.00
2024-01-29T07:48:46.631Z,89730.00
2024-01-29T07:49:46.637Z,89731.00
2024-01-29T07:50:46.671Z,89732.00
2024-01-29T07:51:46.671Z,89733.00
2024-01-29T07:52:46.678Z,89738.00
2024-01-29T07:53:46.694Z,89732.00
2024-01-29T07:54:46.774Z,89735.00
2024-01-29T07:55:46.793Z,89735.00
2024-01-29T07:56:46.851Z,89736.00
2024-01-29T07:57:46.865Z,89733.00
2024-01-29T07:58:46.986Z,89735.00
2024-01-29T07:59:47.781Z,89736.00
2024-01-29T08:00:47.251Z,89733.00
2024-01-29T08:01:47.297Z,89738.00
2024-01-29T08:02:47.105Z,89741.00
2024-01-29T08:03:47.137Z,89742.00
2024-01-29T08:04:47.336Z,89741.00
2024-01-29T08:05:47.170Z,89742.00
2024-01-29T08:06:47.167Z,89740.00
2024-01-29T08:07:47.178Z,89737.00
2024-01-29T08:08:47.218Z,89740.00
2024-01-29T08:09:47.289Z,89738.00
2024-01-29T08:10:47.355Z,89737.00
2024-01-29T08:11:47.426Z,89733.00
2024-01-29T08:12:47.567Z,89732.00
2024-01-29T08:13:47.582Z,89740.00
2024-01-29T08:14:47.601Z,89733.00
2024-01-29T08:15:47.687Z,89731.00
2024-01-29T08:16:47.662Z,89729.00
2024-01-29T08:17:47.844Z,89728.00
2024-01-29T08:18:47.913Z,89728.00
2024-01-29T08:19:47.882Z,89733.00
2024-01-29T08:20:47.934Z,89732.00
2024-01-29T08:21:47.877Z,89732.00
2024-01-29T08:22:47.814Z,89731.00
2024-01-29T08:23:47.864Z,89735.00
2024-01-29T08:24:49.106Z,89732.00
2024-01-29T08:25:47.906Z,89727.00
2024-01-29T08:26:47.929Z,89730.00
2024-01-29T08:27:48.000Z,89725.00
2024-01-29T08:28:48.004Z,89720.00
2024-01-29T08:29:48.049Z,89722.00
2024-01-29T08:30:48.229Z,89724.00
2024-01-29T08:31:48.248Z,89719.00
2024-01-29T08:32:48.471Z,89725.00
2024-01-29T08:33:48.563Z,89722.00
2024-01-29T08:34:48.730Z,89722.00
2024-01-29T08:35:48.643Z,89712.00
2024-01-29T08:36:48.798Z,89725.00
2024-01-29T08:37:48.826Z,89723.00
2024-01-29T08:38:48.914Z,89725.00
2024-01-29T08:39:49.020Z,89724.00
2024-01-29T08:40:49.059Z,89726.00
2024-01-29T08:41:49.120Z,89725.00
2024-01-29T08:42:49.214Z,89721.00
2024-01-29T08:43:49.253Z,89722.00
2024-01-29T08:44:49.331Z,89719.00
2024-01-29T08:45:49.522Z,89719.00
2024-01-29T08:46:49.445Z,89722.00
2024-01-29T08:47:49.548Z,89724.00
2024-01-29T08:48:49.572Z,89718.00
2024-01-29T08:49:49.639Z,89721.00
2024-01-29T08:50:49.663Z,89718.00
2024-01-29T08:51:49.776Z,89720.00
2024-01-29T08:52:49.754Z,89724.00
2024-01-29T08:53:49.820Z,89725.00
2024-01-29T08:54:49.932Z,89726.00
2024-01-29T08:55:50.145Z,89721.00
2024-01-29T08:56:49.926Z,89721.00
2024-01-29T08:57:49.952Z,89715.00
2024-01-29T08:58:49.960Z,89723.00
2024-01-29T08:59:50.008Z,89714.00
2024-01-29T09:00:50.030Z,89714.00
2024-01-29T09:01:50.245Z,89722.00
2024-01-29T09:02:50.081Z,89718.00
2024-01-29T09:03:50.174Z,89719.00
2024-01-29T09:04:50.184Z,89718.00
2024-01-29T09:05:50.169Z,89726.00
2024-01-29T09:06:50.326Z,89719.00
2024-01-29T09:07:50.199Z,89718.00
2024-01-29T09:08:50.264Z,89721.00
2024-01-29T09:09:50.295Z,89719.00
2024-01-29T09:10:50.305Z,89718.00
2024-01-29T09:11:50.297Z,89717.00
2024-01-29T09:12:50.453Z,89711.00
2024-01-29T09:13:50.347Z,89710.00
2024-01-29T09:14:50.382Z,89714.00
2024-01-29T09:15:50.446Z,89714.00
2024-01-29T09:16:50.448Z,89719.00
2024-01-29T09:17:50.490Z,89716.00
2024-01-29T09:18:51.333Z,89719.00
2024-01-29T09:19:50.543Z,89715.00
2024-01-29T09:20:50.573Z,89711.00
2024-01-29T09:21:50.657Z,89709.00
2024-01-29T09:22:50.651Z,89708.00
2024-01-29T09:23:50.688Z,89706.00
2024-01-29T09:24:50.811Z,89708.00
2024-01-29T09:25:50.748Z,89708.00
2024-01-29T09:26:50.787Z,89705.00
2024-01-29T09:27:50.908Z,89707.00
2024-01-29T09:28:50.970Z,89707.00
2024-01-29T09:29:50.900Z,89712.00
2024-01-29T09:30:51.013Z,89705.00
2024-01-29T09:31:51.034Z,89708.00
2024-01-29T09:32:51.029Z,89706.00
2024-01-29T09:33:51.174Z,89708.00
2024-01-29T09:34:51.143Z,89707.00
2024-01-29T09:35:51.202Z,89711.00
2024-01-29T09:36:51.145Z,89709.00
2024-01-29T09:37:51.221Z,89713.00
2024-01-29T09:38:51.275Z,89708.00
2024-01-29T09:39:51.373Z,89709.00
2024-01-29T09:40:51.437Z,89713.00
2024-01-29T09:41:51.506Z,89711.00
2024-01-29T09:42:51.546Z,89717.00
2024-01-29T09:43:51.603Z,89713.00
2024-01-29T09:44:51.677Z,89713.00
2024-01-29T09:45:51.832Z,89716.00
2024-01-29T09:46:51.785Z,89714.00
2024-01-29T09:47:51.997Z,89715.00
2024-01-29T09:48:52.204Z,89715.00
2024-01-29T09:49:52.010Z,89712.00
2024-01-29T09:50:51.994Z,89712.00
2024-01-29T09:51:52.110Z,89713.00
2024-01-29T09:52:53.484Z,89716.00
2024-01-29T09:53:52.311Z,89715.00
2024-01-29T09:54:52.532Z,89713.00
2024-01-29T09:55:52.405Z,89709.00
2024-01-29T09:56:52.460Z,89713.00
2024-01-29T09:57:52.581Z,89707.00
2024-01-29T09:58:53.327Z,89707.00
2024-01-29T09:59:52.612Z,89708.00
2024-01-29T10:00:52.704Z,89707.00
2024-01-29T10:01:52.882Z,89706.00
2024-01-29T10:02:52.822Z,89717.00
2024-01-29T10:03:52.836Z,89711.00
2024-01-29T10:04:52.848Z,89703.00
2024-01-29T10:05:52.901Z,89697.00
2024-01-29T10:06:52.990Z,89700.00
2024-01-29T10:07:53.003Z,89700.00
2024-01-29T10:08:53.042Z,89698.00
2024-01-29T10:09:53.059Z,89699.00
2024-01-29T10:10:53.073Z,89697.00
2024-01-29T10:11:53.077Z,89694.00
2024-01-29T10:12:53.067Z,89693.00
2024-01-29T10:13:53.096Z,89694.00
2024-01-29T10:14:53.138Z,89694.00
2024-01-29T10:15:53.290Z,89689.00
2024-01-29T10:16:53.200Z,89694.00
2024-01-29T10:17:53.267Z,89697.00
2024-01-29T10:18:53.313Z,89688.00
2024-01-29T10:19:53.385Z,89689.00
2024-01-29T10:20:53.305Z,89687.00
2024-01-29T10:21:53.338Z,89686.00
2024-01-29T10:22:53.342Z,89681.00
2024-01-29T10:23:53.377Z,89686.00
2024-01-29T10:24:53.509Z,89684.00
2024-01-29T10:25:53.402Z,89684.00
2024-01-29T10:26:53.426Z,89680.00
2024-01-29T10:27:53.533Z,89677.00
2024-01-29T10:30:20.871Z,89674.00
2024-01-29T10:30:58.811Z,89674.00
2024-01-29T10:31:57.941Z,89675.00
2024-01-29T10:32:58.105Z,89673.00
2024-01-29T10:33:58.200Z,89673.00
2024-01-29T10:34:58.193Z,89670.00
2024-01-29T10:35:58.213Z,89675.00
2024-01-29T10:36:58.132Z,89673.00
2024-01-29T10:37:58.102Z,89673.00
2024-01-29T10:38:58.146Z,89674.00
2024-01-29T10:40:00.338Z,89669.00
2024-01-29T10:40:58.361Z,89670.00
2024-01-29T10:41:58.412Z,89672.00
2024-01-29T10:42:58.336Z,89669.00
2024-01-29T10:43:58.454Z,89671.00
2024-01-29T10:44:58.351Z,89667.00
2024-01-29T10:45:58.448Z,89665.00
2024-01-29T10:46:58.398Z,89673.00
2024-01-29T10:48:21.417Z,89663.00
2024-01-29T10:48:58.404Z,89664.00
2024-01-29T10:49:58.460Z,89665.00
2024-01-29T10:50:58.371Z,89666.00
2024-01-29T10:51:58.563Z,89659.00
2024-01-29T10:58:18.128Z,89656.00
2024-01-29T10:58:44.696Z,89658.00
2024-01-29T10:59:23.589Z,89657.00
2024-01-29T11:00:23.633Z,89651.00
2024-01-29T11:01:23.762Z,89651.00
2024-01-29T11:02:23.788Z,89651.00
2024-01-29T11:03:23.731Z,89647.00
2024-01-29T11:04:23.825Z,89645.00
2024-01-29T11:05:23.813Z,89645.00
2024-01-29T11:06:23.801Z,89642.00
2024-01-29T11:07:23.829Z,89639.00
2024-01-29T11:08:23.847Z,89637.00
2024-01-29T11:09:23.890Z,89637.00
2024-01-29T11:10:23.936Z,89636.00
2024-01-29T11:11:23.922Z,89638.00
2024-01-29T11:12:23.924Z,89635.00
2024-01-29T11:13:23.960Z,89637.00
2024-01-29T11:14:24.047Z,89635.00
2024-01-29T11:15:23.987Z,89633.00
2024-01-29T11:16:24.004Z,89633.00
2024-01-29T11:17:24.030Z,89633.00
2024-01-29T11:18:24.157Z,89631.00
2024-01-29T11:19:24.176Z,89631.00
2024-01-29T11:20:24.129Z,89628.00
2024-01-29T11:21:24.181Z,89626.00
2024-01-29T11:22:24.212Z,89623.00
2024-01-29T11:23:28.528Z,89626.00
2024-01-29T11:24:25.275Z,89622.00
2024-01-29T11:25:24.318Z,89621.00
2024-01-29T11:26:24.362Z,89622.00
2024-01-29T11:27:24.375Z,89620.00
2024-01-29T11:28:24.487Z,89619.00
2024-01-29T11:29:24.448Z,89619.00
2024-01-29T11:30:24.491Z,89617.00
2024-01-29T11:31:24.531Z,89616.00
2024-01-29T11:32:24.547Z,89617.00
2024-01-29T11:33:24.662Z,89615.00
2024-01-29T11:34:24.635Z,89614.00
2024-01-29T11:35:31.342Z,89616.00
2024-01-29T11:36:25.632Z,89610.00
2024-01-29T11:37:24.690Z,89605.00
2024-01-29T11:38:24.733Z,89604.00
2024-01-29T11:39:24.687Z,89603.00
2024-01-29T11:40:24.703Z,89601.00
2024-01-29T11:41:24.723Z,89598.00
2024-01-29T11:42:24.761Z,89595.00
2024-01-29T11:43:24.809Z,89595.00
2024-01-29T11:44:24.825Z,89591.00
2024-01-29T11:45:24.850Z,89589.00
2024-01-29T11:46:24.948Z,89588.00
2024-01-29T11:47:24.933Z,89585.00
2024-01-29T11:48:25.068Z,89583.00
2024-01-29T11:49:25.188Z,89583.00
2024-01-29T11:50:24.994Z,89580.00